Melbourne, FL (32901)

6:59 AM EST on February 07, 2016 (GMT -0500)
Timber Ridge | | Change Station
CLOSE
Current Station
Personal Weather Station
Location: West Melbourne, FL
Elevation: 33 ft
Nearby Weather Stations
Active Advisory: Lake Wind Advisory

Elev 33 ft 28.07 °N, 80.65 °W | Updated 4 minutes ago

Clear
Clear
47.0 °F
Feels Like 47 °F
N
1.0
Wind Variable Wind from West
Gusts 15.0 mph

Today
High -- | Low -- °F
--% Chance of Precip.
Yesterday
High -- | Low -- °F
Precip. -- in
Pressure 29.94 in
Visibility 10.0 miles
Clouds Mostly Cloudy 800 ft
Mostly Cloudy 1300 ft
Windchill 47 °F
Dew Point 43 °F
Humidity 86%
Rainfall 0.02 in
Snow Depth Not available.
7:06 AM 6:07 PM
Waning Crescent, 2% visible
METAR KMLB 071153Z 30013KT 10SM BKN008 BKN013 08/07 A2994 RMK AO2 SLP139 60005 70099 T00830067 10117 20083 53007
Pressure 29.94 in
Visibility 10.0 miles
Clouds Mostly Cloudy 800 ft
Mostly Cloudy 1300 ft
Windchill 47 °F
Dew Point 43 °F
Humidity 86%
Rainfall 0.02 in
Snow Depth Not available.
7:06 AM 6:07 PM
Waning Crescent, 2% visible
METAR KMLB 071153Z 30013KT 10SM BKN008 BKN013 08/07 A2994 RMK AO2 SLP139 60005 70099 T00830067 10117 20083 53007

10-Day Weather Forecast

Almanac

Astronomy

Feb. 07, 2016 Rise Set
Actual Time
Civil Twilight
Nautical Twilight
Astronomical Twilight
Moon
Length of Visible Light
Length of Day
Tomorrow will be .
, % of the Moon is Illuminated

Today's Extremes

State Highs State Lows

Community

WunderPhotos

Upload Photos

1,891,182 photos uploaded!

WunderBlog® & News

Nearby

Air Quality

  Air Quality AQ Index Pollutant
Not available.

Snow Depth

Station Depth Elevation

Earthquake Activity

City Distance Mag. Time & Date
Minimum magnitude displayed is 2.5.

Coastal Water Temperatures

Place Temperature

Stations

Nearby Weather Stations

Station Location Temp. Windchill Dew Point Humidity Wind Precip. Elev Updated Type
                   

Watches & Warnings

Lake Wind Advisory
Issued: 3:47 AM EST Feb. 7, 2016 – National Weather Service

... Lake Wind Advisory in effect until 6 PM EST this evening...

The National Weather Service in Melbourne has issued a lake Wind
Advisory... which is in effect until 6 PM EST this evening.

* Winds... northwest winds around 20 mph today with gusts up to 30
to 35 mph.

* Impacts... choppy conditions on Open Lakes and other larger
bodies of water will make operation of small boats potentially
hazardous.

Precautionary/preparedness actions...

A lake Wind Advisory indicates that winds will cause rough chop
on area lakes. Small boats will be especially prone to capsizing.



Weitlich